Time;durP1;ratioP1;P1;durP2;ratioP2;P2;SDS_P1;SDS_P2;PMS_P1;PMS_P2;Temp;Humidity;BMP_temperature;BMP_pressure;BME280_temperature;BME280_humidity;BME280_pressure;Samples;Min_cycle;Max_cycle;Signal;HPM_P1;HPM_P2
2023/10/26 00:02:07;;;;;;;11.85;5.18;;;;;;;;;;5067967;28;20995;-60
2023/10/26 00:04:33;;;;;;;12.73;5.38;;;;;;;;;;5051611;28;20148;-60
2023/10/26 00:07:00;;;;;;;13.77;5.50;;;;;;;;;;5057702;28;20056;-60
2023/10/26 00:09:27;;;;;;;13.52;5.15;;;;;;;;;;5062003;28;20148;-60
2023/10/26 00:11:55;;;;;;;10.82;5.03;;;;;;;;;;5068930;28;20040;-60
2023/10/26 00:14:22;;;;;;;12.48;5.22;;;;;;;;;;5059634;28;20052;-60
2023/10/26 00:16:48;;;;;;;10.60;5.28;;;;;;;;;;5059696;28;20047;-62
2023/10/26 00:19:15;;;;;;;11.90;5.18;;;;;;;;;;5043802;28;20064;-60
2023/10/26 00:21:42;;;;;;;11.45;5.05;;;;;;;;;;5043519;28;20045;-60
2023/10/26 00:24:09;;;;;;;10.35;4.90;;;;;;;;;;5038707;28;20084;-61
2023/10/26 00:26:35;;;;;;;10.10;5.22;;;;;;;;;;5043214;28;20044;-60
2023/10/26 00:29:03;;;;;;;10.98;5.30;;;;;;;;;;5045521;28;20059;-59
2023/10/26 00:31:30;;;;;;;8.65;4.90;;;;;;;;;;5043919;28;20065;-58
2023/10/26 00:33:57;;;;;;;12.00;5.88;;;;;;;;;;5037359;28;20052;-59
2023/10/26 00:36:23;;;;;;;11.43;5.40;;;;;;;;;;5039760;28;20099;-58
2023/10/26 00:38:50;;;;;;;12.13;5.70;;;;;;;;;;5044013;28;20063;-60
2023/10/26 00:41:16;;;;;;;10.15;5.10;;;;;;;;;;5043415;28;20140;-60
2023/10/26 00:43:43;;;;;;;11.43;5.68;;;;;;;;;;5053971;28;20127;-59
2023/10/26 00:46:11;;;;;;;11.77;5.85;;;;;;;;;;5055802;28;20053;-58
2023/10/26 00:48:38;;;;;;;13.70;6.10;;;;;;;;;;5051400;28;20084;-59
2023/10/26 00:51:05;;;;;;;10.38;5.03;;;;;;;;;;5043851;28;20147;-59
2023/10/26 00:53:33;;;;;;;11.98;5.22;;;;;;;;;;5040223;28;20053;-59
2023/10/26 00:56:00;;;;;;;14.52;6.20;;;;;;;;;;5036415;28;20053;-59
2023/10/26 00:58:29;;;;;;;13.68;6.43;;;;;;;;;;5044059;28;20109;-58
2023/10/26 01:00:56;;;;;;;13.68;6.90;;;;;;;;;;5043911;28;20049;-58
2023/10/26 01:03:25;;;;;;;14.52;6.28;;;;;;;;;;5040171;28;20077;-58
2023/10/26 01:05:51;;;;;;;17.08;6.72;;;;;;;;;;5044390;28;20049;-62
2023/10/26 01:08:18;;;;;;;13.70;6.05;;;;;;;;;;5044301;28;20057;-59
2023/10/26 01:10:45;;;;;;;12.27;6.65;;;;;;;;;;5043607;28;20060;-60
2023/10/26 01:13:12;;;;;;;13.18;6.70;;;;;;;;;;5038790;28;20061;-58
2023/10/26 01:15:38;;;;;;;11.80;5.93;;;;;;;;;;5044465;28;20045;-59
2023/10/26 01:18:05;;;;;;;13.30;6.35;;;;;;;;;;5034525;28;20115;-59
2023/10/26 01:20:33;;;;;;;11.80;6.45;;;;;;;;;;5040986;28;20061;-59
2023/10/26 01:23:01;;;;;;;15.10;7.22;;;;;;;;;;5033907;28;20297;-59
2023/10/26 01:25:28;;;;;;;11.85;6.07;;;;;;;;;;5022477;28;20053;-59
2023/10/26 01:27:54;;;;;;;11.98;5.72;;;;;;;;;;5016527;28;20061;-59
2023/10/26 01:30:21;;;;;;;13.13;6.05;;;;;;;;;;5022519;28;20052;-59
2023/10/26 01:32:48;;;;;;;12.95;6.32;;;;;;;;;;5024410;28;20057;-59
2023/10/26 01:35:14;;;;;;;12.35;5.30;;;;;;;;;;5042257;28;20059;-59
2023/10/26 01:37:41;;;;;;;11.25;5.45;;;;;;;;;;5042374;28;20205;-59
2023/10/26 01:40:10;;;;;;;14.23;5.85;;;;;;;;;;5043999;28;20062;-59
2023/10/26 01:42:37;;;;;;;10.27;5.68;;;;;;;;;;5057239;28;20060;-60
2023/10/26 01:45:04;;;;;;;10.73;5.13;;;;;;;;;;5063643;28;20056;-59
2023/10/26 01:47:31;;;;;;;12.50;5.68;;;;;;;;;;5043458;28;20102;-59
2023/10/26 01:49:59;;;;;;;10.70;5.53;;;;;;;;;;5035134;28;20092;-59
2023/10/26 01:52:25;;;;;;;10.98;5.65;;;;;;;;;;5035922;28;20056;-58
2023/10/26 01:54:52;;;;;;;11.00;5.60;;;;;;;;;;5021044;28;20124;-60
2023/10/26 01:57:20;;;;;;;10.57;5.65;;;;;;;;;;5020854;28;20049;-59
2023/10/26 01:59:47;;;;;;;9.52;4.88;;;;;;;;;;5054269;28;20052;-61
2023/10/26 02:02:13;;;;;;;10.88;5.63;;;;;;;;;;5037908;28;20048;-60
2023/10/26 02:04:40;;;;;;;10.27;5.68;;;;;;;;;;5010134;28;20059;-59
2023/10/26 02:07:06;;;;;;;9.35;5.00;;;;;;;;;;5082325;28;20071;-59
2023/10/26 02:09:33;;;;;;;10.65;5.70;;;;;;;;;;5071116;28;20143;-59
2023/10/26 02:11:59;;;;;;;10.95;5.00;;;;;;;;;;5069131;28;20088;-59
2023/10/26 02:14:26;;;;;;;10.95;5.45;;;;;;;;;;5070023;28;20056;-58
2023/10/26 02:16:53;;;;;;;10.65;5.28;;;;;;;;;;5082696;28;20495;-60
2023/10/26 02:19:20;;;;;;;10.30;5.38;;;;;;;;;;5059922;28;20091;-60
2023/10/26 02:21:46;;;;;;;11.80;5.80;;;;;;;;;;5073781;28;20151;-60
2023/10/26 02:24:13;;;;;;;9.80;5.15;;;;;;;;;;5069495;28;20131;-61
2023/10/26 02:26:39;;;;;;;10.93;5.28;;;;;;;;;;5080582;28;20055;-60
2023/10/26 02:29:06;;;;;;;12.07;5.50;;;;;;;;;;5075708;28;20060;-60
2023/10/26 02:31:34;;;;;;;10.25;5.80;;;;;;;;;;5062069;28;20079;-60
2023/10/26 02:34:00;;;;;;;11.95;4.90;;;;;;;;;;5056669;28;20053;-60
2023/10/26 02:36:27;;;;;;;12.00;5.68;;;;;;;;;;5031813;28;20063;-60
2023/10/26 02:38:53;;;;;;;11.48;5.43;;;;;;;;;;5039894;28;20063;-60
2023/10/26 02:41:20;;;;;;;10.80;5.43;;;;;;;;;;5041153;28;20136;-59
2023/10/26 02:43:47;;;;;;;10.23;4.95;;;;;;;;;;5038492;28;20140;-59
2023/10/26 02:46:14;;;;;;;12.75;5.82;;;;;;;;;;5045570;28;20059;-60
2023/10/26 02:48:42;;;;;;;12.07;5.90;;;;;;;;;;5042126;28;20083;-59
2023/10/26 02:51:08;;;;;;;12.85;5.80;;;;;;;;;;5042850;28;20056;-59
2023/10/26 02:53:35;;;;;;;10.65;5.68;;;;;;;;;;5037041;28;20079;-60
2023/10/26 02:56:01;;;;;;;12.15;5.90;;;;;;;;;;5042025;28;20063;-60
2023/10/26 02:58:28;;;;;;;10.77;4.95;;;;;;;;;;5025751;28;20713;-60
2023/10/26 03:00:55;;;;;;;10.35;5.10;;;;;;;;;;5020809;28;20084;-59
2023/10/26 03:03:22;;;;;;;11.00;5.55;;;;;;;;;;5021025;28;20049;-60
2023/10/26 03:05:50;;;;;;;12.63;5.55;;;;;;;;;;5035680;28;20063;-60
2023/10/26 03:08:16;;;;;;;10.70;4.82;;;;;;;;;;5035151;28;20084;-60
2023/10/26 03:10:43;;;;;;;13.75;6.00;;;;;;;;;;5042073;28;20145;-59
2023/10/26 03:13:10;;;;;;;12.45;5.65;;;;;;;;;;5040906;28;20053;-60
2023/10/26 03:15:37;;;;;;;12.05;5.35;;;;;;;;;;5024373;28;20053;-59
2023/10/26 03:18:04;;;;;;;11.55;5.85;;;;;;;;;;5020589;28;20109;-59
2023/10/26 03:20:33;;;;;;;11.05;5.75;;;;;;;;;;5013702;28;20056;-59
2023/10/26 03:23:01;;;;;;;13.98;5.55;;;;;;;;;;5023068;28;20115;-59
2023/10/26 03:25:27;;;;;;;13.27;6.53;;;;;;;;;;5020088;28;20068;-59
2023/10/26 03:27:54;;;;;;;11.18;6.05;;;;;;;;;;5022061;28;20141;-59
2023/10/26 03:30:21;;;;;;;14.10;5.63;;;;;;;;;;5015526;28;20093;-59
2023/10/26 03:32:47;;;;;;;11.00;5.10;;;;;;;;;;5041566;28;20254;-60
2023/10/26 03:35:14;;;;;;;11.27;5.70;;;;;;;;;;5037325;28;20119;-59
2023/10/26 03:37:40;;;;;;;9.82;5.40;;;;;;;;;;5021743;28;20095;-59
2023/10/26 03:40:10;;;;;;;13.43;5.72;;;;;;;;;;5019665;28;20064;-59
2023/10/26 03:42:37;;;;;;;11.55;5.82;;;;;;;;;;5038271;28;20068;-59
2023/10/26 03:45:04;;;;;;;12.05;5.68;;;;;;;;;;5036788;28;20131;-59
2023/10/26 03:47:31;;;;;;;10.25;5.38;;;;;;;;;;5057624;28;20080;-59
2023/10/26 03:49:57;;;;;;;11.70;5.47;;;;;;;;;;5044176;28;20057;-59
2023/10/26 03:52:24;;;;;;;11.23;5.57;;;;;;;;;;5035319;28;20098;-60
2023/10/26 03:54:50;;;;;;;11.05;5.28;;;;;;;;;;5034129;28;20053;-59
2023/10/26 03:57:18;;;;;;;9.50;5.03;;;;;;;;;;5048624;28;20124;-59
2023/10/26 03:59:45;;;;;;;10.82;5.32;;;;;;;;;;5043541;28;20056;-58
2023/10/26 04:02:12;;;;;;;8.93;4.53;;;;;;;;;;5041996;28;20048;-59
2023/10/26 04:04:40;;;;;;;10.52;5.25;;;;;;;;;;5025822;28;20081;-59
2023/10/26 04:07:07;;;;;;;10.00;5.10;;;;;;;;;;5024744;28;20091;-59
2023/10/26 04:09:34;;;;;;;10.63;5.38;;;;;;;;;;5038855;28;20080;-59
2023/10/26 04:12:01;;;;;;;10.60;5.35;;;;;;;;;;5044474;28;20087;-59
2023/10/26 04:14:29;;;;;;;11.45;6.07;;;;;;;;;;5038528;28;20053;-60
2023/10/26 04:16:55;;;;;;;13.40;5.95;;;;;;;;;;5044147;28;20102;-58
2023/10/26 04:19:22;;;;;;;17.25;6.80;;;;;;;;;;5043510;28;20052;-59
2023/10/26 04:21:48;;;;;;;12.98;6.45;;;;;;;;;;5044456;28;20056;-59
2023/10/26 04:24:15;;;;;;;16.23;6.28;;;;;;;;;;5036988;28;20164;-60
2023/10/26 04:26:42;;;;;;;12.95;6.60;;;;;;;;;;5043786;28;20057;-59
2023/10/26 04:29:09;;;;;;;17.13;8.15;;;;;;;;;;5043692;28;20111;-59
2023/10/26 04:31:37;;;;;;;14.05;7.22;;;;;;;;;;5043240;28;20069;-59
2023/10/26 04:34:04;;;;;;;15.55;6.53;;;;;;;;;;5043792;28;20080;-59
2023/10/26 04:36:30;;;;;;;15.30;6.82;;;;;;;;;;5057016;28;20083;-58
2023/10/26 04:38:57;;;;;;;16.08;7.40;;;;;;;;;;5064843;28;20071;-59
2023/10/26 04:41:23;;;;;;;16.75;7.28;;;;;;;;;;5064418;28;20080;-58
2023/10/26 04:43:50;;;;;;;17.25;7.82;;;;;;;;;;5057592;28;20175;-59
2023/10/26 04:46:18;;;;;;;24.45;11.30;;;;;;;;;;5045396;28;20059;-59
2023/10/26 04:48:46;;;;;;;;;;;;;;;;;;5045407;28;20278;-59
2023/10/26 04:51:13;;;;;;;18.17;8.30;;;;;;;;;;5047980;28;19963;-58
2023/10/26 04:53:39;;;;;;;16.05;7.22;;;;;;;;;;5056787;28;20058;-59
2023/10/26 04:56:10;;;;;;;15.38;7.47;;;;;;;;;;5041582;28;20085;-59
2023/10/26 04:58:37;;;;;;;15.27;7.47;;;;;;;;;;5039516;28;20056;-59
2023/10/26 05:01:05;;;;;;;20.67;8.02;;;;;;;;;;5040328;28;20059;-59
2023/10/26 05:03:31;;;;;;;16.25;7.97;;;;;;;;;;5040696;28;20084;-59
2023/10/26 05:06:00;;;;;;;19.38;8.45;;;;;;;;;;5058766;28;20068;-59
2023/10/26 05:08:26;;;;;;;15.02;7.07;;;;;;;;;;5052747;28;20427;-59
2023/10/26 05:10:53;;;;;;;19.00;7.80;;;;;;;;;;5061765;28;20143;-58
2023/10/26 05:13:19;;;;;;;16.08;7.68;;;;;;;;;;5060262;28;20053;-59
2023/10/26 05:15:46;;;;;;;15.05;7.57;;;;;;;;;;5043652;28;20149;-59
2023/10/26 05:18:12;;;;;;;17.65;7.75;;;;;;;;;;5036004;28;20056;-59
2023/10/26 05:20:39;;;;;;;14.82;7.28;;;;;;;;;;5039768;28;20125;-59
2023/10/26 05:23:08;;;;;;;16.95;7.55;;;;;;;;;;5042953;28;20065;-60
2023/10/26 05:25:37;;;;;;;16.67;7.75;;;;;;;;;;5053853;28;20048;-60
2023/10/26 05:28:03;;;;;;;;;;;;;;;;;;5063130;28;20383;-59
2023/10/26 05:30:30;;;;;;;13.85;6.70;;;;;;;;;;5060596;28;19951;-60
2023/10/26 05:32:57;;;;;;;14.65;7.07;;;;;;;;;;5062603;28;20142;-59
2023/10/26 05:35:23;;;;;;;18.77;7.85;;;;;;;;;;5036676;28;20155;-60
2023/10/26 05:37:50;;;;;;;14.65;7.18;;;;;;;;;;5042112;28;20118;-60
2023/10/26 05:40:18;;;;;;;14.65;7.55;;;;;;;;;;5034776;28;20140;-60
2023/10/26 05:42:44;;;;;;;14.68;7.30;;;;;;;;;;5042554;28;20076;-60
2023/10/26 05:45:12;;;;;;;14.68;7.28;;;;;;;;;;5036508;28;20128;-60
2023/10/26 05:47:39;;;;;;;15.90;7.68;;;;;;;;;;5047959;28;20056;-59
2023/10/26 05:50:07;;;;;;;32.25;14.13;;;;;;;;;;5039971;28;20068;-61
2023/10/26 05:52:33;;;;;;;45.03;18.83;;;;;;;;;;5034593;28;21542;-60
2023/10/26 05:55:02;;;;;;;46.77;21.10;;;;;;;;;;5026822;28;20060;-63
2023/10/26 05:57:31;;;;;;;24.00;11.38;;;;;;;;;;5023629;28;20292;-59
2023/10/26 05:59:57;;;;;;;18.75;8.38;;;;;;;;;;5041869;28;20111;-60
2023/10/26 06:02:24;;;;;;;14.82;7.38;;;;;;;;;;5033876;28;20053;-60
2023/10/26 06:04:51;;;;;;;16.13;7.40;;;;;;;;;;5042005;28;20134;-60
2023/10/26 06:07:17;;;;;;;15.57;7.82;;;;;;;;;;5043395;28;20057;-61
2023/10/26 06:09:44;;;;;;;15.05;7.30;;;;;;;;;;5038359;28;20049;-60
2023/10/26 06:12:12;;;;;;;17.65;7.75;;;;;;;;;;5038047;28;20053;-60
2023/10/26 06:14:40;;;;;;;21.35;9.77;;;;;;;;;;5049279;28;20132;-60
2023/10/26 06:17:06;;;;;;;25.75;12.82;;;;;;;;;;5023004;28;20168;-61
2023/10/26 06:19:34;;;;;;;35.38;16.17;;;;;;;;;;5020886;28;20115;-60
2023/10/26 06:22:00;;;;;;;35.47;17.08;;;;;;;;;;5026642;28;20061;-61
2023/10/26 06:24:27;;;;;;;17.70;8.32;;;;;;;;;;5017329;28;20105;-60
2023/10/26 06:26:54;;;;;;;17.20;7.90;;;;;;;;;;5040492;28;20095;-60
2023/10/26 06:29:20;;;;;;;16.23;7.07;;;;;;;;;;5046084;28;20127;-61
2023/10/26 06:31:49;;;;;;;16.75;6.88;;;;;;;;;;5062562;28;20044;-59
2023/10/26 06:34:16;;;;;;;13.13;6.38;;;;;;;;;;5042370;28;20059;-59
2023/10/26 06:36:42;;;;;;;27.60;12.30;;;;;;;;;;5057693;28;20056;-59
2023/10/26 06:39:09;;;;;;;23.23;10.43;;;;;;;;;;5062744;28;20290;-59
2023/10/26 06:41:36;;;;;;;24.67;10.80;;;;;;;;;;5063186;28;20485;-59
2023/10/26 06:44:02;;;;;;;19.00;8.43;;;;;;;;;;5059103;28;20049;-60
2023/10/26 06:46:29;;;;;;;18.40;8.18;;;;;;;;;;5041992;28;20065;-60
2023/10/26 06:48:57;;;;;;;17.60;8.43;;;;;;;;;;5041919;28;20143;-58
2023/10/26 06:51:24;;;;;;;17.45;8.10;;;;;;;;;;5048643;28;20069;-60
2023/10/26 06:53:50;;;;;;;17.90;8.02;;;;;;;;;;5036919;28;20049;-60
2023/10/26 06:56:17;;;;;;;17.25;7.80;;;;;;;;;;5026397;28;20176;-61
2023/10/26 06:58:44;;;;;;;19.40;8.50;;;;;;;;;;5039232;28;20418;-61
2023/10/26 07:01:10;;;;;;;17.15;8.25;;;;;;;;;;5043448;28;20057;-60
2023/10/26 07:03:37;;;;;;;14.90;6.82;;;;;;;;;;5036704;28;20063;-60
2023/10/26 07:06:07;;;;;;;14.32;6.93;;;;;;;;;;5037737;28;20057;-61
2023/10/26 07:08:34;;;;;;;33.17;15.57;;;;;;;;;;5036899;28;20052;-60
2023/10/26 07:11:05;;;;;;;23.67;11.38;;;;;;;;;;5044083;28;20125;-61
2023/10/26 07:13:32;;;;;;;16.42;7.68;;;;;;;;;;5040269;28;20049;-60
2023/10/26 07:16:00;;;;;;;13.52;6.47;;;;;;;;;;5062889;28;20076;-60
2023/10/26 07:18:26;;;;;;;14.63;7.05;;;;;;;;;;5055423;28;20149;-60
2023/10/26 07:20:53;;;;;;;13.35;6.13;;;;;;;;;;5061811;28;20231;-61
2023/10/26 07:23:21;;;;;;;13.25;6.47;;;;;;;;;;5063739;28;20098;-59
2023/10/26 07:25:48;;;;;;;15.00;6.70;;;;;;;;;;5047037;28;20055;-60
2023/10/26 07:28:15;;;;;;;14.75;6.70;;;;;;;;;;5043961;28;20084;-59
2023/10/26 07:30:42;;;;;;;15.43;6.75;;;;;;;;;;5045614;28;20049;-60
2023/10/26 07:33:09;;;;;;;13.60;6.28;;;;;;;;;;5047555;28;20061;-59
2023/10/26 07:35:40;;;;;;;14.00;7.25;;;;;;;;;;5072579;28;20073;-59
2023/10/26 07:38:08;;;;;;;14.75;7.07;;;;;;;;;;5042050;28;20435;-60
2023/10/26 07:40:37;;;;;;;12.93;6.35;;;;;;;;;;5040578;28;21574;-60
2023/10/26 07:43:04;;;;;;;14.70;7.07;;;;;;;;;;5046411;28;20059;-60
2023/10/26 07:45:31;;;;;;;12.73;6.45;;;;;;;;;;5045789;28;20445;-60
2023/10/26 07:47:57;;;;;;;13.48;6.75;;;;;;;;;;5028785;28;20100;-60
2023/10/26 07:50:24;;;;;;;11.93;5.88;;;;;;;;;;5017398;28;20061;-60
2023/10/26 07:52:51;;;;;;;12.82;5.90;;;;;;;;;;5028835;28;20080;-60
2023/10/26 07:55:18;;;;;;;15.25;6.75;;;;;;;;;;5043087;28;20047;-60
2023/10/26 07:57:46;;;;;;;17.48;8.05;;;;;;;;;;5069694;28;20048;-61
2023/10/26 08:00:15;;;;;;;18.67;8.63;;;;;;;;;;5061448;28;20045;-59
2023/10/26 08:02:41;;;;;;;15.63;7.70;;;;;;;;;;5064652;28;20116;-60
2023/10/26 08:05:09;;;;;;;16.63;7.32;;;;;;;;;;5047354;28;20401;-60
2023/10/26 08:07:37;;;;;;;17.73;7.90;;;;;;;;;;5065821;28;20136;-61
2023/10/26 08:10:04;;;;;;;14.88;7.15;;;;;;;;;;5057777;28;20098;-61
2023/10/26 08:12:31;;;;;;;16.98;7.72;;;;;;;;;;5061222;28;20048;-61
2023/10/26 08:14:59;;;;;;;16.05;7.25;;;;;;;;;;5045082;28;20044;-61
2023/10/26 08:17:26;;;;;;;15.65;7.18;;;;;;;;;;5054572;28;20080;-61
2023/10/26 08:19:54;;;;;;;17.02;7.35;;;;;;;;;;5068113;28;20052;-61
2023/10/26 08:22:21;;;;;;;18.38;6.63;;;;;;;;;;5060733;28;20055;-61
2023/10/26 08:24:48;;;;;;;14.38;6.35;;;;;;;;;;5048973;28;20048;-60
2023/10/26 08:27:15;;;;;;;15.07;7.13;;;;;;;;;;5067057;28;20084;-61
2023/10/26 08:29:42;;;;;;;14.00;6.57;;;;;;;;;;5066146;28;20050;-60
2023/10/26 08:32:10;;;;;;;13.38;6.63;;;;;;;;;;5061341;28;20102;-60
2023/10/26 08:34:39;;;;;;;16.10;6.80;;;;;;;;;;5045335;28;20068;-61
2023/10/26 08:37:05;;;;;;;;;;;;;;;;;;5060787;28;20049;-60
2023/10/26 08:39:32;;;;;;;15.35;5.95;;;;;;;;;;5063999;28;20019;-60
2023/10/26 08:42:01;;;;;;;14.40;6.45;;;;;;;;;;5065799;28;20147;-59
2023/10/26 08:44:29;;;;;;;15.70;7.35;;;;;;;;;;5045610;28;20048;-60
2023/10/26 08:46:59;;;;;;;15.27;7.05;;;;;;;;;;5050747;28;20423;-60
2023/10/26 08:49:30;;;;;;;15.65;7.55;;;;;;;;;;5048436;28;20052;-60
2023/10/26 08:51:57;;;;;;;19.73;8.02;;;;;;;;;;5064345;28;20151;-59
2023/10/26 08:54:24;;;;;;;14.63;6.78;;;;;;;;;;5050939;28;20108;-59
2023/10/26 08:56:50;;;;;;;16.35;7.13;;;;;;;;;;5057860;28;20113;-60
2023/10/26 08:59:17;;;;;;;17.40;8.10;;;;;;;;;;5049671;28;20139;-59
2023/10/26 09:01:46;;;;;;;16.13;7.50;;;;;;;;;;5046271;28;20056;-60
2023/10/26 09:04:14;;;;;;;16.05;7.30;;;;;;;;;;5010505;28;20060;-60
2023/10/26 09:06:46;;;;;;;17.80;7.72;;;;;;;;;;5025718;28;20091;-60
2023/10/26 09:09:13;;;;;;;17.75;7.43;;;;;;;;;;5023475;28;20125;-59
2023/10/26 09:11:40;;;;;;;18.55;7.55;;;;;;;;;;5024634;28;20061;-59
2023/10/26 09:14:17;;;;;;;19.85;7.78;;;;;;;;;;5030974;28;20126;-60
2023/10/26 09:16:45;;;;;;;16.88;7.57;;;;;;;;;;5029340;28;20080;-60
2023/10/26 09:19:12;;;;;;;22.50;8.83;;;;;;;;;;5042777;28;20087;-59
2023/10/26 09:21:50;;;;;;;21.45;8.60;;;;;;;;;;5045630;28;20307;-59
2023/10/26 09:24:26;;;;;;;22.10;8.43;;;;;;;;;;5030775;28;20196;-59
2023/10/26 09:26:53;;;;;;;20.60;8.75;;;;;;;;;;5045765;28;20069;-58
2023/10/26 09:29:20;;;;;;;21.85;9.05;;;;;;;;;;5047298;28;20094;-59
2023/10/26 09:31:54;;;;;;;20.08;9.00;;;;;;;;;;5042694;28;20060;-59
2023/10/26 09:34:24;;;;;;;22.90;8.57;;;;;;;;;;5033259;28;20059;-59
2023/10/26 09:37:13;;;;;;;25.30;9.07;;;;;;;;;;5022596;28;20064;-59
2023/10/26 09:39:42;;;;;;;28.10;10.40;;;;;;;;;;5015915;28;20108;-59
2023/10/26 09:42:10;;;;;;;23.75;10.07;;;;;;;;;;5022215;28;20053;-59
2023/10/26 09:44:37;;;;;;;17.80;8.32;;;;;;;;;;5039348;28;20079;-59
2023/10/26 09:47:06;;;;;;;18.92;7.90;;;;;;;;;;5040540;28;20148;-59
2023/10/26 09:49:33;;;;;;;21.17;7.80;;;;;;;;;;5044103;28;20294;-60
2023/10/26 09:51:59;;;;;;;18.08;7.85;;;;;;;;;;5043953;28;20084;-60
2023/10/26 09:54:32;;;;;;;15.13;7.30;;;;;;;;;;5033564;28;20048;-59
2023/10/26 09:57:04;;;;;;;16.73;6.97;;;;;;;;;;5062349;28;20131;-59
2023/10/26 09:59:32;;;;;;;16.08;7.50;;;;;;;;;;5063725;28;20048;-60
2023/10/26 10:01:59;;;;;;;15.75;6.97;;;;;;;;;;5047058;28;20193;-60
2023/10/26 10:04:40;;;;;;;16.33;6.88;;;;;;;;;;5042356;28;20156;-60
2023/10/26 10:07:09;;;;;;;16.60;7.55;;;;;;;;;;5060312;28;20052;-60
2023/10/26 10:10:05;;;;;;;17.08;7.20;;;;;;;;;;5062757;28;20100;-60
2023/10/26 10:12:33;;;;;;;14.50;6.88;;;;;;;;;;5056520;28;22425;-60
2023/10/26 10:15:06;;;;;;;18.20;7.87;;;;;;;;;;5038016;28;20095;-60
2023/10/26 10:18:09;;;;;;;16.95;7.63;;;;;;;;;;5041997;28;20053;-60
2023/10/26 10:20:37;;;;;;;19.67;7.78;;;;;;;;;;5036651;28;20074;-59
2023/10/26 10:23:05;;;;;;;18.00;7.40;;;;;;;;;;5042565;28;20084;-59
2023/10/26 10:26:01;;;;;;;16.30;7.22;;;;;;;;;;5029906;28;20214;-59
2023/10/26 10:28:51;;;;;;;15.60;7.30;;;;;;;;;;5037518;28;20491;-59
2023/10/26 10:31:45;;;;;;;16.35;7.47;;;;;;;;;;5041032;28;20067;-60
2023/10/26 10:34:19;;;;;;;18.58;7.93;;;;;;;;;;5003990;28;20064;-59
2023/10/26 10:37:11;;;;;;;15.20;7.10;;;;;;;;;;5061013;28;20044;-59
2023/10/26 10:39:39;;;;;;;15.38;7.43;;;;;;;;;;5061093;28;20055;-59
2023/10/26 10:42:11;;;;;;;15.98;7.05;;;;;;;;;;5061090;28;20044;-59
2023/10/26 10:44:38;;;;;;;18.10;7.97;;;;;;;;;;5023443;28;20157;-59
2023/10/26 10:47:05;;;;;;;15.52;6.70;;;;;;;;;;5038913;28;20080;-59
2023/10/26 10:49:31;;;;;;;15.50;7.25;;;;;;;;;;5042324;28;20142;-59
2023/10/26 10:51:58;;;;;;;16.67;7.85;;;;;;;;;;5042878;28;20086;-60
2023/10/26 10:54:25;;;;;;;14.07;6.95;;;;;;;;;;5050777;28;20056;-61
2023/10/26 10:56:52;;;;;;;14.18;6.75;;;;;;;;;;4988010;28;20056;-61
2023/10/26 10:59:22;;;;;;;16.27;7.28;;;;;;;;;;5023718;28;20234;-60
2023/10/26 11:01:50;;;;;;;16.23;7.45;;;;;;;;;;5036145;28;20370;-60
2023/10/26 11:04:18;;;;;;;16.33;7.05;;;;;;;;;;5035483;28;20061;-61
2023/10/26 11:06:47;;;;;;;15.87;7.50;;;;;;;;;;5039688;28;20142;-60
2023/10/26 11:09:25;;;;;;;18.15;7.03;;;;;;;;;;5041931;28;20049;-60
2023/10/26 11:11:52;;;;;;;19.08;8.07;;;;;;;;;;5045735;28;20135;-60
2023/10/26 11:14:20;;;;;;;15.48;7.57;;;;;;;;;;5047799;28;20085;-61
2023/10/26 11:16:49;;;;;;;14.43;7.50;;;;;;;;;;5044814;28;20139;-60
2023/10/26 11:19:15;;;;;;;16.25;7.50;;;;;;;;;;5040671;28;20099;-61
2023/10/26 11:21:42;;;;;;;14.75;7.13;;;;;;;;;;5040673;28;20123;-61
2023/10/26 11:24:09;;;;;;;15.60;7.10;;;;;;;;;;5006221;28;20161;-61
2023/10/26 11:26:36;;;;;;;17.23;7.68;;;;;;;;;;5036972;28;20044;-60
2023/10/26 11:29:04;;;;;;;16.42;7.30;;;;;;;;;;5061391;28;20037;-61
2023/10/26 11:31:41;;;;;;;15.85;6.72;;;;;;;;;;5039574;28;20514;-60
2023/10/26 11:34:12;;;;;;;19.83;7.40;;;;;;;;;;5026223;28;20073;-60
2023/10/26 11:36:39;;;;;;;15.15;7.30;;;;;;;;;;5042158;28;20045;-59
2023/10/26 11:39:06;;;;;;;16.88;7.43;;;;;;;;;;5043834;28;20054;-59
2023/10/26 11:41:36;;;;;;;18.30;7.22;;;;;;;;;;5023428;28;20061;-59
2023/10/26 11:44:03;;;;;;;16.42;8.00;;;;;;;;;;5028671;28;20060;-60
2023/10/26 11:46:32;;;;;;;16.65;7.65;;;;;;;;;;5062040;28;20067;-59
2023/10/26 11:48:59;;;;;;;17.13;7.50;;;;;;;;;;5064499;28;20037;-59
2023/10/26 11:51:28;;;;;;;15.15;7.50;;;;;;;;;;5060714;28;20122;-59
2023/10/26 11:53:55;;;;;;;18.48;7.47;;;;;;;;;;5038174;28;20072;-60
2023/10/26 11:56:22;;;;;;;15.15;7.10;;;;;;;;;;5035650;28;20116;-60
2023/10/26 11:58:49;;;;;;;18.35;8.27;;;;;;;;;;5051375;28;20054;-60
2023/10/26 12:01:15;;;;;;;16.88;8.20;;;;;;;;;;5054742;28;20119;-60
2023/10/26 12:03:47;;;;;;;17.25;8.40;;;;;;;;;;5040020;28;20072;-59
2023/10/26 12:06:16;;;;;;;19.23;8.68;;;;;;;;;;5034124;28;20059;-59
2023/10/26 12:08:44;;;;;;;20.42;8.07;;;;;;;;;;5063189;28;20052;-59
2023/10/26 12:11:11;;;;;;;17.17;7.88;;;;;;;;;;5063406;28;20048;-60
2023/10/26 12:13:39;;;;;;;22.75;8.82;;;;;;;;;;5060828;28;20044;-60
2023/10/26 12:16:06;;;;;;;19.08;8.70;;;;;;;;;;5041544;28;20102;-59
2023/10/26 12:18:34;;;;;;;18.42;8.32;;;;;;;;;;5043062;28;20059;-59
2023/10/26 12:21:01;;;;;;;16.50;7.72;;;;;;;;;;5045629;28;20052;-59
2023/10/26 12:23:28;;;;;;;19.80;9.18;;;;;;;;;;5042566;28;20068;-60
2023/10/26 12:25:56;;;;;;;17.90;8.88;;;;;;;;;;5041433;28;20048;-59
2023/10/26 12:28:23;;;;;;;23.45;8.35;;;;;;;;;;5057811;28;20135;-60
2023/10/26 12:30:50;;;;;;;17.77;9.25;;;;;;;;;;5066388;28;20059;-60
2023/10/26 12:33:17;;;;;;;15.10;7.30;;;;;;;;;;5065549;28;20780;-60
2023/10/26 12:35:44;;;;;;;15.63;7.70;;;;;;;;;;5025792;28;20052;-60
2023/10/26 12:38:11;;;;;;;19.75;8.88;;;;;;;;;;5063655;28;20122;-60
2023/10/26 12:40:38;;;;;;;16.50;7.78;;;;;;;;;;5063611;28;20090;-60
2023/10/26 12:43:06;;;;;;;16.70;7.63;;;;;;;;;;5066790;28;20148;-60
2023/10/26 12:45:32;;;;;;;16.90;6.60;;;;;;;;;;5030370;28;20139;-60
2023/10/26 12:47:59;;;;;;;15.25;7.10;;;;;;;;;;5067282;28;20063;-60
2023/10/26 12:50:26;;;;;;;16.95;7.10;;;;;;;;;;5059858;28;20071;-60
2023/10/26 12:52:53;;;;;;;15.75;7.13;;;;;;;;;;5066658;28;20105;-60
2023/10/26 12:55:21;;;;;;;14.50;7.15;;;;;;;;;;5028653;28;20045;-60
2023/10/26 12:57:48;;;;;;;21.95;9.43;;;;;;;;;;5046516;28;20063;-60
2023/10/26 13:00:16;;;;;;;18.27;7.13;;;;;;;;;;5040830;28;20069;-60
2023/10/26 13:02:43;;;;;;;;;;;;;;;;;;5023987;28;20076;-60
2023/10/26 13:05:10;;;;;;;14.68;7.30;;;;;;;;;;5043995;28;19921;-60
2023/10/26 13:07:36;;;;;;;16.27;6.93;;;;;;;;;;5065286;28;20132;-60
2023/10/26 13:10:04;;;;;;;14.73;7.07;;;;;;;;;;5067049;28;20072;-61
2023/10/26 13:12:33;;;;;;;13.87;6.87;;;;;;;;;;5058619;28;20071;-60
2023/10/26 13:14:59;;;;;;;13.15;6.78;;;;;;;;;;5039521;28;20056;-61
2023/10/26 13:17:27;;;;;;;13.68;6.45;;;;;;;;;;5072387;28;20084;-60
2023/10/26 13:19:54;;;;;;;14.10;6.47;;;;;;;;;;5065689;28;20110;-62
2023/10/26 13:22:20;;;;;;;14.30;6.57;;;;;;;;;;5060831;28;20088;-60
2023/10/26 13:24:50;;;;;;;12.32;5.82;;;;;;;;;;5076623;28;20113;-61
2023/10/26 13:27:19;;;;;;;11.82;6.10;;;;;;;;;;5065563;28;20090;-60
2023/10/26 13:29:46;;;;;;;12.05;6.18;;;;;;;;;;5063859;28;20110;-60
2023/10/26 13:32:13;;;;;;;14.30;5.82;;;;;;;;;;5062601;28;20234;-60
2023/10/26 13:34:42;;;;;;;13.55;6.25;;;;;;;;;;5059413;28;20087;-59
2023/10/26 13:37:10;;;;;;;13.32;6.05;;;;;;;;;;5065396;28;20152;-60
2023/10/26 13:39:38;;;;;;;10.77;5.53;;;;;;;;;;5058762;28;20341;-60
2023/10/26 13:42:07;;;;;;;12.85;6.57;;;;;;;;;;5043457;28;20057;-62
2023/10/26 13:44:35;;;;;;;11.65;5.95;;;;;;;;;;5011556;28;20120;-61
2023/10/26 13:47:01;;;;;;;12.70;5.93;;;;;;;;;;5041203;28;20049;-60
2023/10/26 13:49:28;;;;;;;13.07;5.80;;;;;;;;;;5044029;28;20143;-60
2023/10/26 13:51:56;;;;;;;12.10;6.07;;;;;;;;;;5043541;28;20139;-60
2023/10/26 13:54:23;;;;;;;12.13;6.18;;;;;;;;;;5049220;28;20056;-61
2023/10/26 13:56:50;;;;;;;11.98;6.22;;;;;;;;;;5047673;28;20049;-61
2023/10/26 13:59:16;;;;;;;12.85;5.63;;;;;;;;;;5058498;28;20330;-60
2023/10/26 14:01:43;;;;;;;12.88;6.25;;;;;;;;;;5064316;28;20052;-60
2023/10/26 14:04:11;;;;;;;14.13;6.38;;;;;;;;;;5056872;28;20109;-61
2023/10/26 14:06:38;;;;;;;10.75;5.85;;;;;;;;;;5063819;28;20050;-60
2023/10/26 14:09:06;;;;;;;13.02;6.22;;;;;;;;;;5064033;28;20139;-60
2023/10/26 14:11:32;;;;;;;13.88;6.28;;;;;;;;;;5066013;28;20202;-60
2023/10/26 14:13:59;;;;;;;12.70;6.22;;;;;;;;;;5039412;28;20091;-61
2023/10/26 14:16:26;;;;;;;12.63;6.13;;;;;;;;;;5036732;28;20068;-61
2023/10/26 14:18:52;;;;;;;14.63;6.70;;;;;;;;;;5043279;28;20138;-61
2023/10/26 14:21:19;;;;;;;16.17;7.40;;;;;;;;;;5043890;28;20140;-61
2023/10/26 14:23:46;;;;;;;14.77;6.90;;;;;;;;;;5042043;28;20114;-61
2023/10/26 14:26:15;;;;;;;14.77;6.88;;;;;;;;;;5019679;28;20048;-61
2023/10/26 14:28:42;;;;;;;15.45;6.38;;;;;;;;;;5043062;28;20056;-61
2023/10/26 14:31:08;;;;;;;13.73;7.28;;;;;;;;;;5044350;28;20053;-60
2023/10/26 14:33:35;;;;;;;12.38;6.32;;;;;;;;;;5041939;28;20084;-61
2023/10/26 14:36:02;;;;;;;15.00;6.63;;;;;;;;;;5038964;28;20041;-60